Time;durP1;ratioP1;P1;durP2;ratioP2;P2;SDS_P1;SDS_P2;PMS_P1;PMS_P2;Temp;Humidity;BMP_temperature;BMP_pressure;BME280_temperature;BME280_humidity;BME280_pressure;Samples;Min_cycle;Max_cycle;Signal;HPM_P1;HPM_P2
2022/09/01 00:01:19;;;;;;;6.03;0.60;;;;;;;19.01;73.01;101714.91;7378424;19;20019;-66
2022/09/01 00:04:07;;;;;;;5.72;0.50;;;;;;;19.02;73.04;101712.06;7375870;19;20019;-66
2022/09/01 00:06:55;;;;;;;4.18;0.30;;;;;;;19.02;73.41;101705.88;7369245;19;20453;-66
2022/09/01 00:09:54;;;;;;;6.85;0.85;;;;;;;19.00;72.89;101708.75;7368942;19;20018;-66
2022/09/01 00:12:31;;;;;;;4.53;0.43;;;;;;;18.99;73.13;101703.59;7372128;19;20033;-66
2022/09/01 00:15:12;;;;;;;4.70;0.30;;;;;;;18.94;73.86;101704.16;7377472;19;20026;-66
2022/09/01 00:18:02;;;;;;;3.33;0.40;;;;;;;18.96;73.95;101702.13;7382030;19;20014;-66
2022/09/01 00:20:48;;;;;;;6.32;0.40;;;;;;;18.93;74.13;101694.50;7377247;19;20014;-66
2022/09/01 00:23:20;;;;;;;5.10;0.65;;;;;;;19.00;73.72;101692.72;7389157;19;20033;-65
2022/09/01 00:25:54;;;;;;;2.75;0.35;;;;;;;18.96;73.67;101686.13;7386120;19;20348;-66
2022/09/01 00:28:36;;;;;;;5.65;0.40;;;;;;;18.98;73.94;101689.44;7387240;19;20104;-65
2022/09/01 00:31:13;;;;;;;4.78;0.30;;;;;;;18.99;74.01;101692.94;7388471;19;20025;-66
2022/09/01 00:33:51;;;;;;;3.60;0.40;;;;;;;18.93;74.69;101686.50;7386847;19;20019;-65
2022/09/01 00:36:27;;;;;;;2.28;0.30;;;;;;;18.93;74.53;101686.50;7387453;19;20010;-65
2022/09/01 00:39:01;;;;;;;4.93;0.50;;;;;;;18.99;74.02;101688.44;7385732;19;20090;-66
2022/09/01 00:41:46;;;;;;;2.75;0.40;;;;;;;18.94;74.04;101680.16;7378665;19;20014;-66
2022/09/01 00:44:26;;;;;;;4.50;0.60;;;;;;;18.95;74.18;101683.63;7374399;19;20071;-64
2022/09/01 00:47:09;;;;;;;6.97;0.40;;;;;;;18.93;74.31;101683.84;7381483;19;20670;-66
2022/09/01 00:49:49;;;;;;;2.60;0.40;;;;;;;18.94;74.87;101688.16;7378361;19;20014;-66
2022/09/01 00:52:36;;;;;;;5.68;0.40;;;;;;;18.98;74.06;101685.94;7392084;19;20018;-66
2022/09/01 00:55:22;;;;;;;8.68;0.30;;;;;;;18.94;74.30;101684.66;7387973;19;20026;-66
2022/09/01 00:57:55;;;;;;;4.32;0.30;;;;;;;18.96;74.73;101682.63;7390101;19;20017;-66
2022/09/01 01:00:33;;;;;;;5.90;0.30;;;;;;;18.91;74.60;101683.19;7389534;19;20374;-65
2022/09/01 01:03:07;;;;;;;4.90;0.40;;;;;;;18.89;75.11;101676.41;7389957;19;20014;-64
2022/09/01 01:05:52;;;;;;;3.70;0.40;;;;;;;18.88;75.02;101672.91;7384566;19;20014;-65
2022/09/01 01:08:35;;;;;;;4.32;0.30;;;;;;;18.90;75.00;101676.19;7389286;19;20026;-64
2022/09/01 01:11:18;;;;;;;7.20;0.32;;;;;;;18.87;75.25;101676.56;7388031;19;20014;-66
2022/09/01 01:13:59;;;;;;;5.05;0.30;;;;;;;18.85;75.22;101669.75;7390309;19;20037;-65
2022/09/01 01:16:29;;;;;;;7.47;0.70;;;;;;;18.86;75.33;101664.25;7383398;19;20022;-65
2022/09/01 01:18:59;;;;;;;5.35;0.98;;;;;;;18.83;76.35;101664.63;7387388;19;20504;-66
2022/09/01 01:24:30;;;;;;;5.05;1.02;;;;;;;18.79;76.27;101658.03;7387374;19;20045;-65
2022/09/01 01:27:11;;;;;;;1.90;0.30;;;;;;;18.82;76.27;101659.47;7386891;19;20374;-65
2022/09/01 01:29:40;;;;;;;5.65;0.38;;;;;;;18.86;75.87;101650.06;7383855;19;20036;-65
2022/09/01 01:32:12;;;;;;;;;;;;;;;18.82;76.11;101649.63;7390425;19;20018;-65
2022/09/01 01:34:46;;;;;;;5.63;0.82;;;;;;;18.79;76.81;101652.69;7385411;19;19915;-65
2022/09/01 01:37:14;;;;;;;3.05;0.30;;;;;;;18.79;76.32;101650.81;7380449;19;20483;-65
2022/09/01 01:39:43;;;;;;;2.30;0.38;;;;;;;18.81;76.19;101650.63;7383636;19;20325;-65
2022/09/01 01:42:13;;;;;;;2.80;0.40;;;;;;;18.82;76.04;101646.97;7389985;19;20010;-65
2022/09/01 01:44:47;;;;;;;4.85;0.32;;;;;;;18.80;76.16;101644.47;7385771;19;20022;-65
2022/09/01 01:47:16;;;;;;;3.00;0.20;;;;;;;18.77;75.78;101644.88;7389729;19;20022;-65
2022/09/01 01:49:47;;;;;;;5.20;0.35;;;;;;;18.77;76.34;101638.69;7383356;19;20031;-66
2022/09/01 01:52:19;;;;;;;4.20;0.40;;;;;;;18.78;76.07;101635.84;7389604;19;20273;-64
2022/09/01 01:55:00;;;;;;;6.80;0.50;;;;;;;18.74;76.45;101637.22;7385222;19;20006;-65
2022/09/01 01:57:34;;;;;;;4.53;0.38;;;;;;;18.74;76.39;101636.41;7388687;19;20478;-65
2022/09/01 02:00:03;;;;;;;6.13;0.20;;;;;;;18.76;76.30;101637.03;7385651;19;20026;-66
2022/09/01 02:02:36;;;;;;;3.53;0.30;;;;;;;18.73;76.68;101634.75;7387722;19;20345;-66
2022/09/01 02:05:11;;;;;;;7.55;1.77;;;;;;;18.73;76.44;101632.91;7382773;19;20014;-65
2022/09/01 02:07:42;;;;;;;4.20;0.43;;;;;;;18.71;76.84;101628.78;7387070;19;20017;-65
2022/09/01 02:10:13;;;;;;;4.50;0.40;;;;;;;18.69;76.90;101636.94;7385330;19;20010;-64
2022/09/01 02:12:48;;;;;;;4.50;0.68;;;;;;;18.72;76.90;101625.94;7387711;19;20011;-65
2022/09/01 02:15:20;;;;;;;7.00;0.70;;;;;;;18.67;77.27;101625.66;7381960;19;20031;-65
2022/09/01 02:17:47;;;;;;;5.05;0.40;;;;;;;18.68;77.39;101629.97;7376660;19;20014;-65
2022/09/01 02:20:15;;;;;;;5.45;0.38;;;;;;;18.67;77.63;101627.50;7383027;19;20344;-66
2022/09/01 02:22:43;;;;;;;3.88;0.40;;;;;;;18.68;77.72;101626.50;7386675;19;20054;-67
2022/09/01 02:25:15;;;;;;;4.35;0.45;;;;;;;18.67;77.76;101619.50;7384029;19;20028;-66
2022/09/01 02:27:42;;;;;;;5.05;0.50;;;;;;;18.64;78.06;101623.34;7387603;19;20531;-64
2022/09/01 02:30:11;;;;;;;27.13;13.73;;;;;;;18.64;78.24;101628.69;7384302;19;20010;-65
2022/09/01 02:32:40;;;;;;;6.28;2.08;;;;;;;18.60;78.49;101616.75;7386596;19;20018;-64
2022/09/01 02:35:10;;;;;;;6.25;0.60;;;;;;;18.62;78.42;101621.91;7384692;19;20022;-64
2022/09/01 02:37:38;;;;;;;8.20;0.73;;;;;;;18.62;79.17;101622.72;7385613;19;20096;-66
2022/09/01 02:40:09;;;;;;;2.00;0.35;;;;;;;18.71;78.20;101618.09;7374103;19;20518;-65
2022/09/01 02:42:42;;;;;;;7.75;0.40;;;;;;;18.70;78.55;101616.44;7385122;19;20384;-66
2022/09/01 02:45:15;;;;;;;4.10;0.40;;;;;;;18.70;78.55;101619.94;7382766;19;20385;-65
2022/09/01 02:47:45;;;;;;;6.90;0.70;;;;;;;18.68;78.64;101613.97;7385957;19;20018;-66
2022/09/01 02:50:15;;;;;;;7.78;0.40;;;;;;;18.68;78.81;101611.31;7379396;19;20015;-65
2022/09/01 02:52:45;;;;;;;3.90;0.45;;;;;;;18.71;78.63;101607.44;7384398;19;20015;-66
2022/09/01 02:55:12;;;;;;;4.95;0.47;;;;;;;18.69;78.86;101606.81;7384821;19;20031;-66
2022/09/01 02:57:40;;;;;;;4.93;0.85;;;;;;;18.65;79.09;101611.69;7388216;19;20020;-66
2022/09/01 03:00:21;;;;;;;5.53;0.55;;;;;;;18.66;78.94;101602.66;7384230;19;20024;-65
2022/09/01 03:02:51;;;;;;;8.85;0.40;;;;;;;18.65;79.15;101602.84;7385535;19;20066;-65
2022/09/01 03:05:28;;;;;;;4.10;0.50;;;;;;;18.66;79.03;101607.16;7383006;19;20018;-65
2022/09/01 03:08:01;;;;;;;6.90;0.65;;;;;;;18.66;79.41;101599.16;7384332;19;20357;-65
2022/09/01 03:10:35;;;;;;;6.38;0.50;;;;;;;18.66;79.33;101591.19;7384959;19;20017;-65
2022/09/01 03:13:07;;;;;;;2.47;0.40;;;;;;;18.64;79.49;101593.22;7383016;19;20349;-65
2022/09/01 03:15:36;;;;;;;4.40;0.43;;;;;;;18.61;79.86;101597.06;7386567;19;20011;-65
2022/09/01 03:18:07;;;;;;;8.15;0.50;;;;;;;18.55;79.96;101592.47;7380167;19;21135;-65
2022/09/01 03:20:38;;;;;;;9.27;0.50;;;;;;;18.52;80.07;101592.00;7381407;19;20122;-65
2022/09/01 03:23:09;;;;;;;7.50;1.70;;;;;;;18.48;80.01;101586.22;7384353;19;20010;-63
2022/09/01 03:25:37;;;;;;;5.70;0.50;;;;;;;18.49;81.04;101579.84;7381447;19;20051;-64
2022/09/01 03:28:14;;;;;;;5.45;0.40;;;;;;;18.45;80.53;101580.41;7385211;19;20009;-64
2022/09/01 03:30:48;;;;;;;6.22;0.60;;;;;;;18.44;80.39;101579.59;7384990;19;20018;-64
2022/09/01 03:33:18;;;;;;;6.68;0.50;;;;;;;18.44;80.40;101584.13;7386514;19;20129;-64
2022/09/01 03:35:45;;;;;;;6.32;0.68;;;;;;;18.48;80.37;101580.06;7379982;19;20383;-64
2022/09/01 03:38:20;;;;;;;6.45;0.50;;;;;;;18.47;80.27;101578.41;7383652;19;20101;-64
2022/09/01 03:40:52;;;;;;;3.45;0.30;;;;;;;18.47;80.26;101573.91;7384413;19;20347;-64
2022/09/01 03:43:23;;;;;;;5.30;0.70;;;;;;;18.47;80.52;101579.22;7384564;19;20014;-65
2022/09/01 03:46:00;;;;;;;7.90;0.50;;;;;;;18.48;80.42;101572.88;7381814;19;20470;-65
2022/09/01 03:48:28;;;;;;;5.72;0.40;;;;;;;18.47;80.37;101570.41;7384489;19;20014;-66
2022/09/01 03:51:01;;;;;;;6.55;0.70;;;;;;;18.46;80.28;101579.41;7379540;19;20011;-65
2022/09/01 03:53:36;;;;;;;6.55;0.35;;;;;;;18.46;80.44;101577.56;7383912;19;20013;-67
2022/09/01 03:56:07;;;;;;;5.65;0.90;;;;;;;18.49;80.23;101571.84;7383038;19;20324;-65
2022/09/01 03:58:36;;;;;;;4.68;0.40;;;;;;;18.50;80.32;101570.84;7383071;19;20367;-66
2022/09/01 04:01:04;;;;;;;4.30;0.40;;;;;;;18.48;80.77;101567.56;7381327;19;20029;-66
2022/09/01 04:03:39;;;;;;;2.75;0.50;;;;;;;18.47;80.63;101570.41;7384198;19;20354;-66
2022/09/01 04:06:09;;;;;;;2.78;0.47;;;;;;;18.48;80.54;101566.72;7378668;19;20187;-65
2022/09/01 04:08:42;;;;;;;2.55;0.32;;;;;;;18.44;80.81;101570.78;7381740;19;20364;-65
2022/09/01 04:11:16;;;;;;;5.00;0.32;;;;;;;18.40;80.79;101562.31;7384067;19;20358;-66
2022/09/01 04:13:45;;;;;;;4.28;0.47;;;;;;;18.39;81.17;101563.31;7383373;19;20108;-66
2022/09/01 04:19:19;;;;;;;7.15;0.50;;;;;;;18.38;81.50;101553.69;7375815;19;20022;-66
2022/09/01 04:21:50;;;;;;;4.65;0.40;;;;;;;18.37;81.62;101552.03;7381629;19;20483;-66
2022/09/01 04:24:19;;;;;;;10.02;0.50;;;;;;;18.39;81.64;101548.16;7375702;19;20022;-65
2022/09/01 04:26:47;;;;;;;5.38;0.80;;;;;;;18.37;82.02;101544.03;7382411;19;20486;-65
2022/09/01 04:29:18;;;;;;;5.45;0.55;;;;;;;18.37;82.45;101544.88;7382132;19;20035;-66
2022/09/01 04:31:50;;;;;;;8.65;0.50;;;;;;;18.38;82.74;101549.19;7383813;19;20428;-65
2022/09/01 04:34:21;;;;;;;3.65;0.50;;;;;;;18.39;82.82;101550.81;7378604;19;20018;-66
2022/09/01 04:36:53;;;;;;;5.68;0.52;;;;;;;18.45;82.80;101553.75;7382956;19;20503;-66
2022/09/01 04:39:24;;;;;;;5.15;0.40;;;;;;;18.51;83.05;101550.34;7379107;19;20026;-65
2022/09/01 04:41:52;;;;;;;2.70;0.40;;;;;;;18.51;83.20;101545.03;7382451;19;20009;-66
2022/09/01 04:44:21;;;;;;;5.55;0.75;;;;;;;18.54;83.07;101548.16;7381853;19;20015;-66
2022/09/01 04:46:49;;;;;;;5.75;0.43;;;;;;;18.60;83.18;101546.59;7381655;19;20014;-65
2022/09/01 04:49:21;;;;;;;5.15;0.50;;;;;;;18.61;83.74;101553.59;7378956;19;20019;-65
2022/09/01 04:51:51;;;;;;;4.70;0.45;;;;;;;18.57;83.83;101549.66;7383519;19;20015;-65
2022/09/01 04:54:21;;;;;;;7.22;0.57;;;;;;;18.57;83.82;101546.97;7381717;19;20052;-65
2022/09/01 04:56:51;;;;;;;5.88;0.50;;;;;;;18.60;83.90;101542.09;7384075;19;20317;-65
2022/09/01 04:59:23;;;;;;;5.75;0.32;;;;;;;18.59;83.83;101543.09;7379035;19;20040;-64
2022/09/01 05:01:54;;;;;;;8.68;0.50;;;;;;;18.60;83.91;101544.75;7382513;19;20060;-67
2022/09/01 05:04:26;;;;;;;6.57;0.47;;;;;;;18.61;83.64;101530.41;7387298;19;20182;-66
2022/09/01 05:06:59;;;;;;;7.88;0.50;;;;;;;18.64;83.74;101542.56;7388145;19;20015;-65
2022/09/01 05:09:34;;;;;;;4.63;0.43;;;;;;;18.63;84.00;101539.06;7387155;19;20033;-68
2022/09/01 05:12:09;;;;;;;2.45;0.30;;;;;;;18.62;83.94;101540.06;7389168;19;20011;-65
2022/09/01 05:14:47;;;;;;;5.75;0.45;;;;;;;18.66;83.78;101536.00;7387891;19;20010;-66
2022/09/01 05:17:18;;;;;;;4.82;0.82;;;;;;;18.66;84.14;101537.84;7390912;19;20025;-65
2022/09/01 05:19:49;;;;;;;8.05;0.60;;;;;;;18.64;84.04;101539.91;7381542;19;20014;-65
2022/09/01 05:22:21;;;;;;;12.18;0.52;;;;;;;18.67;83.71;101543.00;7386166;19;20021;-66
2022/09/01 05:24:50;;;;;;;4.00;0.45;;;;;;;18.67;84.36;101536.84;7388395;19;20017;-66
2022/09/01 05:27:48;;;;;;;7.47;0.70;;;;;;;18.73;83.93;101538.75;7388008;19;20519;-65
2022/09/01 05:30:37;;;;;;;4.65;0.40;;;;;;;18.77;83.27;101550.69;7388768;19;20403;-66
2022/09/01 05:33:10;;;;;;;5.40;0.70;;;;;;;18.76;83.37;101554.38;7386471;19;20028;-64
2022/09/01 05:35:43;;;;;;;5.88;0.60;;;;;;;18.77;83.27;101538.19;7386757;19;20021;-66
2022/09/01 05:38:12;;;;;;;8.77;0.50;;;;;;;18.81;83.11;101541.28;7386423;19;20455;-65
2022/09/01 05:40:41;;;;;;;5.85;0.45;;;;;;;18.83;83.06;101539.28;7386985;19;20024;-66
2022/09/01 05:43:12;;;;;;;7.70;0.50;;;;;;;18.80;83.09;101534.31;7387604;19;20541;-64
2022/09/01 05:45:43;;;;;;;5.22;0.50;;;;;;;18.78;83.07;101531.03;7386192;19;20387;-66
2022/09/01 05:48:38;;;;;;;3.00;0.50;;;;;;;18.77;83.61;101535.53;7387906;19;20118;-66
2022/09/01 05:51:18;;;;;;;6.72;0.50;;;;;;;18.74;83.49;101533.22;7382530;19;20026;-65
2022/09/01 05:54:09;;;;;;;5.10;0.50;;;;;;;18.73;83.80;101547.59;7386748;19;20023;-65
2022/09/01 05:56:39;;;;;;;7.50;0.50;;;;;;;18.76;84.00;101541.03;7390046;19;20120;-65
2022/09/01 05:59:14;;;;;;;5.15;0.50;;;;;;;18.75;83.60;101536.72;7387231;19;20015;-66
2022/09/01 06:01:54;;;;;;;8.95;0.40;;;;;;;18.78;83.33;101542.50;7386741;19;20052;-67
2022/09/01 06:04:30;;;;;;;4.03;0.50;;;;;;;18.84;83.06;101534.78;7384473;19;20022;-66
2022/09/01 06:06:59;;;;;;;5.10;0.50;;;;;;;18.83;83.16;101541.13;7383291;19;20011;-65
2022/09/01 06:09:38;;;;;;;3.42;0.40;;;;;;;18.79;83.13;101538.00;7383130;19;20019;-65
2022/09/01 06:12:06;;;;;;;6.60;0.60;;;;;;;18.82;83.19;101539.47;7388377;19;20011;-66
2022/09/01 06:14:33;;;;;;;5.00;0.40;;;;;;;18.82;83.54;101531.47;7385317;19;20437;-66
2022/09/01 06:17:02;;;;;;;7.25;0.50;;;;;;;18.78;83.18;101531.03;7387704;19;20010;-66
2022/09/01 06:19:32;;;;;;;3.83;0.50;;;;;;;18.79;83.15;101527.34;7383334;19;20048;-65
2022/09/01 06:22:03;;;;;;;4.85;0.60;;;;;;;18.80;83.30;101527.13;7384717;19;20014;-66
2022/09/01 06:24:30;;;;;;;9.15;0.50;;;;;;;18.79;83.17;101528.13;7381147;19;20010;-65
2022/09/01 06:26:58;;;;;;;4.13;0.40;;;;;;;18.79;83.37;101522.81;7385705;19;20018;-66
2022/09/01 06:29:26;;;;;;;5.15;0.60;;;;;;;18.80;83.45;101529.81;7385081;19;20578;-66
2022/09/01 06:32:09;;;;;;;7.63;0.90;;;;;;;18.82;83.43;101529.63;7386526;19;20010;-66
2022/09/01 06:34:41;;;;;;;6.90;0.70;;;;;;;18.83;83.42;101528.63;7382429;19;20370;-65
2022/09/01 06:37:09;;;;;;;8.50;0.80;;;;;;;18.86;83.37;101530.06;7387245;19;20070;-66
2022/09/01 06:39:38;;;;;;;8.93;0.80;;;;;;;18.86;82.94;101530.88;7383907;19;20014;-66
2022/09/01 06:42:08;;;;;;;7.32;0.88;;;;;;;18.89;83.18;101540.38;7385378;19;20022;-65
2022/09/01 06:44:37;;;;;;;5.25;0.50;;;;;;;18.93;82.89;101538.97;7382452;19;20015;-65
2022/09/01 06:47:07;;;;;;;4.50;0.40;;;;;;;18.96;83.14;101536.72;7383895;19;20486;-65
2022/09/01 06:49:38;;;;;;;4.70;0.50;;;;;;;18.98;82.72;101545.38;7381710;19;20010;-68
2022/09/01 06:52:06;;;;;;;5.38;0.52;;;;;;;19.06;82.32;101526.56;7385230;19;20077;-66
2022/09/01 06:54:38;;;;;;;5.70;0.82;;;;;;;19.07;82.36;101527.41;7384297;19;20015;-66
2022/09/01 06:57:09;;;;;;;4.13;0.50;;;;;;;19.09;82.43;101538.72;7386691;19;20010;-65
2022/09/01 06:59:56;;;;;;;7.50;0.50;;;;;;;19.07;82.65;101536.22;7382101;19;20403;-65
2022/09/01 07:02:23;;;;;;;3.22;0.55;;;;;;;19.07;83.11;101541.56;7384745;19;20015;-65
2022/09/01 07:04:54;;;;;;;10.32;0.73;;;;;;;19.11;83.23;101540.16;7380857;19;20018;-65
2022/09/01 07:07:33;;;;;;;3.28;0.60;;;;;;;19.16;82.10;101537.75;7385613;19;20022;-66
2022/09/01 07:10:26;;;;;;;4.53;0.70;;;;;;;19.21;81.80;101534.50;7384043;19;20519;-65
2022/09/01 07:12:57;;;;;;;4.95;0.52;;;;;;;19.22;82.12;101531.66;7387623;19;20017;-65
2022/09/01 07:15:42;;;;;;;7.03;0.60;;;;;;;19.17;81.76;101536.75;7384425;19;20339;-65
2022/09/01 07:18:31;;;;;;;4.65;0.50;;;;;;;19.22;81.85;101534.31;7384860;19;20416;-65
2022/09/01 07:21:06;;;;;;;4.65;0.40;;;;;;;19.24;81.60;101544.81;7379741;19;20025;-65
2022/09/01 07:24:00;;;;;;;5.80;0.55;;;;;;;19.25;81.47;101533.09;7379848;19;20003;-66
2022/09/01 07:26:39;;;;;;;6.47;0.50;;;;;;;19.26;81.27;101536.59;7384068;19;20077;-66
2022/09/01 07:29:16;;;;;;;3.35;0.60;;;;;;;19.28;81.42;101538.06;7382403;19;20012;-65
2022/09/01 07:31:45;;;;;;;5.53;0.45;;;;;;;19.28;81.48;101545.25;7383904;19;20018;-65
2022/09/01 07:34:15;;;;;;;7.20;0.65;;;;;;;19.32;81.43;101546.50;7382447;19;20010;-65
2022/09/01 07:37:03;;;;;;;6.78;0.70;;;;;;;19.33;81.64;101546.31;7384357;19;20076;-64
2022/09/01 07:39:51;;;;;;;9.52;0.93;;;;;;;19.35;81.58;101546.94;7380795;19;20359;-65
2022/09/01 07:42:21;;;;;;;9.05;1.10;;;;;;;19.41;81.32;101553.34;7383594;19;20086;-65
2022/09/01 07:45:10;;;;;;;10.23;0.88;;;;;;;19.45;80.77;101554.69;7381822;19;21069;-66
2022/09/01 07:47:58;;;;;;;7.22;0.88;;;;;;;19.50;80.66;101552.25;7382236;19;20014;-66
2022/09/01 07:50:28;;;;;;;3.83;0.50;;;;;;;19.57;80.48;101553.13;7359501;19;20006;-66
2022/09/01 07:53:21;;;;;;;8.02;0.80;;;;;;;19.67;80.14;101552.78;7380682;19;20018;-66
2022/09/01 07:55:50;;;;;;;6.13;0.40;;;;;;;19.74;80.42;101556.31;7381025;19;20034;-66
2022/09/01 07:58:32;;;;;;;6.32;0.40;;;;;;;19.87;78.53;101549.22;7378195;19;20015;-65
2022/09/01 08:01:02;;;;;;;6.65;0.60;;;;;;;19.91;78.11;101544.31;7376578;19;20582;-66
2022/09/01 08:03:30;;;;;;;3.35;0.40;;;;;;;19.93;78.46;101544.94;7381072;19;20018;-65
2022/09/01 08:06:12;;;;;;;4.75;0.40;;;;;;;19.93;78.54;101548.44;7380254;19;20048;-65
2022/09/01 08:08:50;;;;;;;6.20;0.57;;;;;;;19.95;78.17;101545.59;7379473;19;20014;-65
2022/09/01 08:11:45;;;;;;;4.65;0.55;;;;;;;20.00;77.87;101546.66;7382428;19;20007;-65
2022/09/01 08:14:34;;;;;;;4.03;0.30;;;;;;;20.09;77.02;101541.94;7366493;19;20096;-65
2022/09/01 08:17:25;;;;;;;5.57;0.40;;;;;;;20.12;77.20;101548.72;7379783;19;20090;-65
2022/09/01 08:20:33;;;;;;;7.75;0.50;;;;;;;20.13;77.76;101551.22;7369526;19;20504;-66
2022/09/01 08:23:26;;;;;;;4.65;0.50;;;;;;;20.16;76.76;101552.69;7364902;19;20022;-64
2022/09/01 08:25:55;;;;;;;9.05;0.60;;;;;;;20.18;76.75;101551.44;7377245;19;20017;-65
2022/09/01 08:28:24;;;;;;;2.42;0.43;;;;;;;20.18;76.92;101556.78;7376537;19;20378;-66
2022/09/01 08:30:58;;;;;;;4.35;0.40;;;;;;;20.24;76.59;101563.19;7375508;19;20399;-65
2022/09/01 08:33:38;;;;;;;3.60;0.30;;;;;;;20.29;75.79;101558.09;7377833;19;20033;-70
2022/09/01 08:36:11;;;;;;;4.97;0.35;;;;;;;20.35;75.27;101557.34;7375109;19;20022;-66
2022/09/01 08:38:40;;;;;;;6.23;0.33;;;;;;;20.38;74.94;101564.94;7375445;19;20010;-66
2022/09/01 08:41:19;;;;;;;7.03;0.40;;;;;;;20.36;74.82;101559.81;7382786;19;20006;-66
2022/09/01 08:44:13;;;;;;;7.10;0.70;;;;;;;20.40;74.50;101565.59;7381240;19;20379;-66
2022/09/01 08:46:45;;;;;;;7.03;0.50;;;;;;;20.38;74.43;101563.09;7385408;19;20011;-65
2022/09/01 08:49:21;;;;;;;8.23;0.43;;;;;;;20.41;73.64;101577.94;7386512;19;20021;-66
2022/09/01 08:52:06;;;;;;;7.30;0.47;;;;;;;20.41;72.95;101569.91;7389115;19;20098;-67
2022/09/01 08:54:41;;;;;;;8.57;0.50;;;;;;;20.45;72.45;101568.47;7385493;19;20101;-67
2022/09/01 08:57:18;;;;;;;6.20;0.40;;;;;;;20.43;72.88;101563.31;7389381;19;20011;-66
2022/09/01 08:59:46;;;;;;;6.38;0.43;;;;;;;20.42;72.90;101567.03;7386449;19;20026;-66
2022/09/01 09:02:52;;;;;;;7.00;0.70;;;;;;;20.47;75.01;101569.91;7389217;19;20022;-66
2022/09/01 09:05:38;;;;;;;3.58;0.57;;;;;;;20.54;72.48;101561.94;7382987;19;20019;-65
2022/09/01 09:08:28;;;;;;;8.48;0.50;;;;;;;20.55;71.85;101555.56;7386318;19;20166;-65
2022/09/01 09:11:39;;;;;;;4.85;0.50;;;;;;;20.61;71.39;101557.44;7385689;19;20053;-66
2022/09/01 09:14:15;;;;;;;5.35;0.40;;;;;;;20.61;71.75;101567.31;7385389;19;20038;-67
2022/09/01 09:16:47;;;;;;;4.38;0.50;;;;;;;20.60;71.61;101560.31;7385426;19;20021;-65
2022/09/01 09:19:25;;;;;;;3.97;0.65;;;;;;;20.64;71.61;101553.53;7384786;19;20018;-65
2022/09/01 09:22:01;;;;;;;2.88;0.40;;;;;;;20.64;71.70;101564.22;7386197;19;20038;-64
2022/09/01 09:24:51;;;;;;;7.53;1.15;;;;;;;20.66;71.38;101556.84;7382102;19;20010;-66
2022/09/01 09:27:26;;;;;;;5.68;0.60;;;;;;;20.68;71.16;101560.94;7389737;19;20513;-64
2022/09/01 09:29:56;;;;;;;7.97;0.45;;;;;;;20.71;71.52;101559.75;7386810;19;20558;-64
2022/09/01 09:32:49;;;;;;;4.38;0.68;;;;;;;20.73;71.89;101561.16;7386758;19;20018;-65
2022/09/01 09:35:40;;;;;;;3.75;0.50;;;;;;;20.78;70.91;101558.72;7385337;19;20042;-65
2022/09/01 09:38:30;;;;;;;5.20;0.40;;;;;;;20.83;69.90;101553.59;7385274;19;20356;-65
2022/09/01 09:41:06;;;;;;;4.28;0.40;;;;;;;20.90;69.37;101551.75;7384403;19;20029;-63
2022/09/01 09:43:48;;;;;;;4.95;0.40;;;;;;;20.92;69.03;101554.25;7385149;19;20496;-64
2022/09/01 09:46:31;;;;;;;2.92;0.70;;;;;;;20.92;68.92;101547.03;7386418;19;20026;-65
2022/09/01 09:49:31;;;;;;;4.03;0.35;;;;;;;20.95;68.57;101543.13;7383287;19;20023;-65
2022/09/01 09:52:08;;;;;;;7.95;0.50;;;;;;;20.93;68.75;101543.31;7385356;19;20033;-65
2022/09/01 09:55:08;;;;;;;6.10;0.73;;;;;;;20.92;68.54;101547.03;7382993;19;20471;-64
2022/09/01 09:57:53;;;;;;;7.82;0.45;;;;;;;20.91;68.75;101545.38;7387002;19;20427;-66
2022/09/01 10:00:28;;;;;;;4.65;0.50;;;;;;;20.89;68.74;101538.56;7383388;19;20096;-65
2022/09/01 10:03:10;;;;;;;3.65;0.30;;;;;;;20.94;68.36;101530.75;7387251;19;20617;-64
2022/09/01 10:05:59;;;;;;;13.40;0.65;;;;;;;20.95;68.52;101537.75;7384852;19;20035;-66
2022/09/01 10:08:44;;;;;;;4.57;0.63;;;;;;;21.02;67.83;101540.47;7384456;19;20078;-65
2022/09/01 10:11:26;;;;;;;5.63;0.50;;;;;;;21.02;67.99;101530.59;7385610;19;20543;-65
2022/09/01 10:14:14;;;;;;;8.23;0.95;;;;;;;20.99;68.35;101532.81;7385032;19;20014;-65
2022/09/01 10:17:36;;;;;;;4.32;0.40;;;;;;;21.00;68.31;101534.47;7385456;19;20010;-66
2022/09/01 10:20:25;;;;;;;9.15;0.90;;;;;;;20.99;68.55;101539.00;7380562;19;20024;-65
2022/09/01 10:22:58;;;;;;;3.30;0.50;;;;;;;20.98;68.66;101539.22;7382987;19;20858;-66
2022/09/01 10:25:35;;;;;;;6.45;0.57;;;;;;;20.98;68.85;101529.31;7380543;19;20042;-65
2022/09/01 10:28:14;;;;;;;4.68;0.50;;;;;;;21.01;68.75;101531.59;7382606;19;20615;-66
2022/09/01 10:31:06;;;;;;;;;;;;;;;;;;;;;
2022/09/01 10:33:43;;;;;;;6.20;0.40;;;;;;;21.01;69.49;101518.22;7386714;19;20010;-65
2022/09/01 10:36:15;;;;;;;10.63;0.55;;;;;;;20.99;69.36;101525.63;7382210;19;20017;-65
2022/09/01 10:38:47;;;;;;;4.03;0.40;;;;;;;21.08;70.29;101519.03;7381239;19;20052;-64
2022/09/01 10:41:49;;;;;;;5.97;0.38;;;;;;;21.08;70.13;101515.56;7383959;19;20491;-65
2022/09/01 10:44:35;;;;;;;4.53;0.40;;;;;;;21.04;70.55;101512.44;7383057;19;20025;-63
2022/09/01 10:47:36;;;;;;;10.35;0.80;;;;;;;21.02;70.53;101511.03;7385993;19;20018;-65
2022/09/01 10:50:31;;;;;;;6.70;0.40;;;;;;;21.02;70.53;101513.69;7380852;19;20010;-64
2022/09/01 10:53:05;;;;;;;4.18;0.50;;;;;;;21.06;69.91;101515.75;7382790;19;20521;-69
2022/09/01 10:56:39;;;;;;;5.18;0.70;;;;;;;21.01;70.44;101502.16;7382255;19;20022;-67
2022/09/01 10:59:25;;;;;;;8.40;1.15;;;;;;;20.98;71.55;101501.75;7381504;19;20014;-64
2022/09/01 11:02:09;;;;;;;;;;;;;;;20.98;70.58;101505.22;7383103;19;20049;-66
2022/09/01 11:05:01;;;;;;;6.13;0.50;;;;;;;21.00;69.94;101494.34;7380524;19;20371;-65
2022/09/01 11:07:37;;;;;;;2.20;0.50;;;;;;;21.06;68.43;101497.03;7384566;19;20010;-66
2022/09/01 11:10:51;;;;;;;6.90;0.70;;;;;;;21.05;69.26;101495.38;7382734;19;20495;-66
2022/09/01 11:13:42;;;;;;;3.00;0.35;;;;;;;21.05;68.85;101492.69;7385546;19;20026;-66
2022/09/01 11:16:37;;;;;;;3.60;0.38;;;;;;;21.07;67.91;101485.28;7384539;19;20365;-64
2022/09/01 11:19:37;;;;;;;1.75;0.40;;;;;;;21.13;67.03;101484.44;7379242;19;20489;-65
2022/09/01 11:22:17;;;;;;;4.55;0.50;;;;;;;21.17;66.53;101484.91;7382740;19;20546;-65
2022/09/01 11:25:12;;;;;;;3.67;0.50;;;;;;;21.18;66.82;101486.56;7381634;19;20062;-65
2022/09/01 11:27:49;;;;;;;4.70;0.40;;;;;;;21.29;64.39;101481.38;7381916;19;20277;-64
2022/09/01 11:30:37;;;;;;;4.13;0.35;;;;;;;21.28;64.69;101487.78;7382488;19;20012;-65
2022/09/01 11:33:22;;;;;;;3.78;0.60;;;;;;;21.30;63.27;101484.91;7385599;19;20022;-65
2022/09/01 11:36:05;;;;;;;5.18;0.65;;;;;;;21.33;63.32;101479.94;7379260;19;20026;-66
2022/09/01 11:38:48;;;;;;;5.05;0.40;;;;;;;21.34;62.78;101481.59;7382840;19;20046;-66
2022/09/01 11:41:32;;;;;;;3.70;0.40;;;;;;;21.40;60.43;101482.63;7382777;19;20010;-65
2022/09/01 11:44:03;;;;;;;2.28;0.30;;;;;;;21.43;59.87;101476.03;7383488;19;20014;-65
2022/09/01 11:46:33;;;;;;;3.15;0.60;;;;;;;21.49;57.40;101467.97;7382850;19;20071;-63
2022/09/01 11:49:06;;;;;;;8.40;0.60;;;;;;;21.52;57.11;101470.25;7379569;19;20027;-65
2022/09/01 11:51:46;;;;;;;3.22;0.30;;;;;;;21.60;57.06;101467.34;7383238;19;20015;-63
2022/09/01 11:54:14;;;;;;;4.03;0.38;;;;;;;21.63;56.29;101468.78;7382319;19;20475;-64
2022/09/01 11:56:41;;;;;;;1.83;0.28;;;;;;;21.66;55.69;101463.00;7384422;19;20025;-65
2022/09/01 11:59:09;;;;;;;2.28;0.43;;;;;;;21.66;55.39;101457.66;7379863;19;20086;-65
2022/09/01 12:01:38;;;;;;;4.43;0.43;;;;;;;21.69;54.09;101454.53;7383876;19;20022;-65
2022/09/01 12:04:30;;;;;;;4.78;0.40;;;;;;;21.79;52.87;101464.84;7382211;19;20041;-67
2022/09/01 12:07:06;;;;;;;6.07;0.52;;;;;;;21.77;53.66;101455.16;7382466;19;20037;-66
2022/09/01 12:09:46;;;;;;;1.17;0.30;;;;;;;21.85;52.05;101462.13;7379857;19;20031;-67
2022/09/01 12:12:30;;;;;;;7.60;1.08;;;;;;;21.85;52.13;101459.44;7388405;19;20090;-68
2022/09/01 12:15:05;;;;;;;4.75;0.30;;;;;;;21.93;50.69;101453.03;7388041;19;20010;-66
2022/09/01 12:17:39;;;;;;;3.92;0.35;;;;;;;21.93;51.11;101456.53;7389843;19;20015;-63
2022/09/01 12:20:25;;;;;;;2.10;0.30;;;;;;;22.01;49.80;101455.50;7383707;19;20066;-64